Time;durP1;ratioP1;P1;durP2;ratioP2;P2;SDS_P1;SDS_P2;PMS_P1;PMS_P2;Temp;Humidity;BMP_temperature;BMP_pressure;BME280_temperature;BME280_humidity;BME280_pressure;Samples;Min_cycle;Max_cycle;Signal;HPM_P1;HPM_P2
2022/12/02 00:03:55;;;;;;;16.30;11.82;;;16.00;64.80;;;;;;10303438;28;20030;-53
2022/12/02 00:09:06;;;;;;;14.07;10.50;;;16.00;64.80;;;;;;10302428;28;20019;-54
2022/12/02 00:14:24;;;;;;;16.10;11.88;;;16.00;64.70;;;;;;10281017;28;20030;-52
2022/12/02 00:19:24;;;;;;;16.05;11.18;;;16.00;64.80;;;;;;10292573;28;20050;-53
2022/12/02 00:24:25;;;;;;;16.70;11.02;;;16.00;64.70;;;;;;10285557;28;20027;-54
2022/12/02 00:29:26;;;;;;;19.85;12.07;;;16.00;64.70;;;;;;10315465;28;20027;-54
2022/12/02 00:34:27;;;;;;;18.40;11.43;;;16.00;64.70;;;;;;10302155;28;20069;-52
2022/12/02 00:39:28;;;;;;;15.80;10.48;;;16.00;64.70;;;;;;10310645;28;20041;-54
2022/12/02 00:49:48;;;;;;;15.77;11.60;;;16.00;64.70;;;;;;10296294;28;20038;-54
2022/12/02 00:54:48;;;;;;;16.10;12.48;;;16.00;64.60;;;;;;10292701;28;20308;-54
2022/12/02 00:59:49;;;;;;;13.95;10.05;;;16.00;64.60;;;;;;10296884;28;20118;-53
2022/12/02 01:04:50;;;;;;;17.30;12.48;;;16.00;65.20;;;;;;10293883;28;20435;-53
2022/12/02 01:09:51;;;;;;;15.40;11.63;;;16.10;67.70;;;;;;10310289;28;20113;-53
2022/12/02 01:14:51;;;;;;;16.77;11.73;;;16.10;66.50;;;;;;10288320;28;20499;-52
2022/12/02 01:19:52;;;;;;;15.23;10.38;;;16.20;66.50;;;;;;10301976;28;20553;-54
2022/12/02 01:24:53;;;;;;;18.88;13.27;;;16.20;66.70;;;;;;10282082;28;20097;-54
2022/12/02 01:29:53;;;;;;;15.48;11.07;;;16.10;67.10;;;;;;10301019;28;20070;-54
2022/12/02 01:34:54;;;;;;;17.77;12.00;;;16.10;67.20;;;;;;10293305;28;20161;-52
2022/12/02 01:39:54;;;;;;;16.35;11.20;;;16.00;67.30;;;;;;10308115;28;20040;-53
2022/12/02 01:44:55;;;;;;;15.63;11.00;;;16.00;67.10;;;;;;10312065;28;20441;-54
2022/12/02 01:49:56;;;;;;;17.23;11.40;;;15.90;67.20;;;;;;10294713;28;20031;-54
2022/12/02 01:54:57;;;;;;;15.80;11.30;;;15.90;67.30;;;;;;10305371;28;20018;-53
2022/12/02 01:59:58;;;;;;;19.33;12.40;;;15.80;67.30;;;;;;10307784;28;20790;-54
2022/12/02 02:05:05;;;;;;;16.52;11.85;;;15.90;67.40;;;;;;10308732;28;20544;-53
2022/12/02 02:10:07;;;;;;;15.98;11.23;;;15.90;67.20;;;;;;10296081;28;20042;-54
2022/12/02 02:15:11;;;;;;;17.13;11.02;;;15.80;67.20;;;;;;10296708;28;20165;-54
2022/12/02 02:20:19;;;;;;;15.25;10.65;;;15.80;67.20;;;;;;10298041;28;20514;-55
2022/12/02 02:25:19;;;;;;;16.48;11.32;;;15.90;67.20;;;;;;10277304;28;20031;-55
2022/12/02 02:30:20;;;;;;;18.45;11.95;;;15.90;66.90;;;;;;10311785;28;20118;-54
2022/12/02 02:35:21;;;;;;;14.80;10.15;;;15.90;66.80;;;;;;10299965;28;20054;-55
2022/12/02 02:40:25;;;;;;;15.27;11.35;;;15.90;66.60;;;;;;10280178;28;20517;-53
2022/12/02 02:45:28;;;;;;;18.85;12.32;;;16.00;66.50;;;;;;10328049;28;20126;-55
2022/12/02 02:50:30;;;;;;;19.00;11.85;;;15.90;66.40;;;;;;10294540;28;20027;-55
2022/12/02 02:55:32;;;;;;;14.82;11.25;;;16.00;66.20;;;;;;10287623;28;20027;-54
2022/12/02 03:00:32;;;;;;;15.10;11.45;;;16.00;65.90;;;;;;10300666;28;20042;-54
2022/12/02 03:05:33;;;;;;;14.30;10.10;;;16.00;66.10;;;;;;10301980;28;20672;-53
2022/12/02 03:10:34;;;;;;;17.42;10.10;;;16.00;66.20;;;;;;10282229;28;20498;-53
2022/12/02 03:15:35;;;;;;;18.15;11.80;;;15.90;66.00;;;;;;10277283;28;20035;-53
2022/12/02 03:20:36;;;;;;;15.63;10.05;;;15.90;66.10;;;;;;10284085;28;20034;-52
2022/12/02 03:25:37;;;;;;;14.15;10.48;;;15.90;66.20;;;;;;10286152;28;20022;-53
2022/12/02 03:30:38;;;;;;;15.43;9.98;;;16.00;66.00;;;;;;10300663;28;20038;-53
2022/12/02 03:35:39;;;;;;;14.95;10.70;;;15.90;66.00;;;;;;10318212;28;20043;-55
2022/12/02 03:40:40;;;;;;;16.63;11.20;;;16.00;66.00;;;;;;10270674;28;20065;-54
2022/12/02 03:45:42;;;;;;;15.00;10.93;;;16.00;65.80;;;;;;10294677;28;20026;-53
2022/12/02 03:50:42;;;;;;;16.67;10.98;;;16.10;65.60;;;;;;10296529;28;20026;-53
2022/12/02 03:55:43;;;;;;;14.98;10.82;;;16.10;65.40;;;;;;10288730;28;20053;-55
2022/12/02 04:00:44;;;;;;;15.35;10.25;;;16.10;65.40;;;;;;10296226;28;20711;-53
2022/12/02 04:05:44;;;;;;;15.80;10.32;;;16.00;65.50;;;;;;10295977;28;20169;-54
2022/12/02 04:10:45;;;;;;;17.10;10.73;;;16.00;65.70;;;;;;10307375;28;20066;-55
2022/12/02 04:15:46;;;;;;;13.32;9.52;;;16.00;65.50;;;;;;10268036;28;20042;-54
2022/12/02 04:20:47;;;;;;;14.15;9.70;;;16.10;65.30;;;;;;10285387;28;20546;-53
2022/12/02 04:25:47;;;;;;;13.55;9.23;;;16.10;65.00;;;;;;10284509;28;20058;-54
2022/12/02 04:30:48;;;;;;;12.95;9.13;;;16.10;64.80;;;;;;10299577;28;20089;-55
2022/12/02 04:35:48;;;;;;;12.57;9.38;;;16.10;65.00;;;;;;10282806;28;20057;-55
2022/12/02 04:40:49;;;;;;;12.95;9.02;;;16.10;65.00;;;;;;10268062;28;20121;-54
2022/12/02 04:45:50;;;;;;;16.77;10.48;;;16.10;65.00;;;;;;10284452;28;20105;-56
2022/12/02 04:50:50;;;;;;;12.02;7.93;;;16.00;65.00;;;;;;10301414;28;20117;-55
2022/12/02 04:55:51;;;;;;;13.88;8.70;;;16.10;64.90;;;;;;10306453;28;20585;-54
2022/12/02 05:00:52;;;;;;;12.85;8.90;;;16.10;64.80;;;;;;10321569;28;20035;-54
2022/12/02 05:05:52;;;;;;;10.30;8.73;;;16.10;64.90;;;;;;10290088;28;20113;-54
2022/12/02 05:10:53;;;;;;;11.60;8.00;;;16.00;64.80;;;;;;10303334;28;20127;-55
2022/12/02 05:15:54;;;;;;;11.93;8.45;;;16.10;64.80;;;;;;10266201;28;20054;-52
2022/12/02 05:20:54;;;;;;;8.98;7.35;;;16.10;64.70;;;;;;10278537;28;20110;-51
2022/12/02 05:25:55;;;;;;;12.82;9.05;;;15.90;64.80;;;;;;10311131;28;20054;-54
2022/12/02 05:30:56;;;;;;;13.52;9.30;;;16.00;64.80;;;;;;10301658;28;20034;-52
2022/12/02 05:35:56;;;;;;;11.57;8.00;;;16.00;64.70;;;;;;10296777;28;20123;-54
2022/12/02 05:40:57;;;;;;;10.82;8.13;;;16.10;64.60;;;;;;10285649;28;20614;-51
2022/12/02 05:45:58;;;;;;;10.43;7.95;;;16.10;64.50;;;;;;10304772;28;20095;-54
2022/12/02 05:50:59;;;;;;;11.45;8.43;;;16.10;64.50;;;;;;10305218;28;20418;-54
2022/12/02 05:56:00;;;;;;;13.77;8.77;;;16.10;64.60;;;;;;10289975;28;20092;-53
2022/12/02 06:01:01;;;;;;;13.75;10.00;;;16.00;64.70;;;;;;10290288;28;20043;-51
2022/12/02 06:06:02;;;;;;;23.27;9.77;;;16.20;65.40;;;;;;10297793;28;20015;-50
2022/12/02 06:11:22;;;;;;;15.60;9.65;;;16.40;66.50;;;;;;10264127;28;20030;-54
2022/12/02 06:16:28;;;;;;;19.02;9.05;;;16.50;67.40;;;;;;10306114;28;20026;-53
2022/12/02 06:21:29;;;;;;;22.25;9.38;;;16.50;68.10;;;;;;10297314;28;20033;-54
2022/12/02 06:26:30;;;;;;;22.15;9.85;;;16.30;68.30;;;;;;10304487;28;20031;-54
2022/12/02 06:31:38;;;;;;;22.35;9.38;;;16.30;68.90;;;;;;10300580;28;20425;-52
